Mandla Airstrip

IN-0102 · Madhya Pradesh, India

Storia di METAR IN-0102 · Mandla Airstrip

Di seguito sono riportati i METAR degli ultimi giorni. Seleziona un anno per sfogliare i METAR più vecchi, dall'anno 2007 in poi.

15 luglio 2024

Tempo Codice Tempo meteorologico Temp. Vista Base nuvolosa Vento METAR/SPECI
07:30
I
27 °C 3,5 km - 020° 020° 4 kt METAR VAJB 150200Z 02004KT 3500 HZ FEW010 SCT090 27/26 Q1001 NOSIG
07:00
I
27 °C 3,5 km - 010° 010° 3 kt METAR VAJB 150130Z 01003KT 3500 HZ FEW012 SCT090 27/26 Q1001 NOSIG

14 luglio 2024

Tempo Codice Tempo meteorologico Temp. Vista Base nuvolosa Vento METAR/SPECI
21:30
I
27 °C 3 km 2.000 ft 180° 180° 8 kt METAR VAJB 141600Z 18008KT 3000 -RA SCT015 BKN020 FEW030CB OVC090 27/25 Q1000 NOSIG
21:00
I
27 °C 3 km 2.000 ft 170° 170° 10 kt METAR VAJB 141530Z 17010KT 3000 -TSRA SCT015 BKN020 FEW030CB OVC090 27/25 Q1000 TEMPO 2000 TSRA
20:30
I
27 °C 3 km 2.000 ft 170° 170° 7 kt METAR VAJB 141500Z 17007KT 3000 -TSRA SCT015 BKN020 FEW030CB OVC090 27/25 Q1000 TEMPO 2000 TSRA
20:00
I
29 °C 4 km 2.000 ft 140° 140° 6 kt METAR VAJB 141430Z 14006KT 4000 -TSRA SCT015 BKN020 FEW030CB OVC090 29/25 Q0999 TEMPO 2000 TSRA
19:30
I
31 °C 4 km 9.000 ft 140° 140° 6 kt METAR VAJB 141400Z 14006KT 4000 TS SCT015 SCT020 FEW030CB BKN090 31/25 Q0999 TEMPO 2500 TSRA
19:00
M
32 °C 6 km 9.000 ft 160° 160° 4 kt METAR VAJB 141330Z 16004KT 6000 SCT018 SCT025 FEW030CB BKN090 32/25 Q0999 NOSIG
18:30
M
33 °C 6 km 9.000 ft 330° 330° 5 kt METAR VAJB 141300Z 33005KT 6000 SCT018 FEW030TCU BKN090 33/24 Q0998 NOSIG
17:30
M
34 °C 6 km 9.000 ft 320° 320° 5 kt METAR VAJB 141200Z 32005KT 6000 SCT018 FEW030TCU BKN090 34/25 Q0996 NOSIG
16:30
M
35 °C 6 km 9.000 ft 320° 320° 5 kt METAR VAJB 141100Z 32005KT 6000 SCT018 FEW030TCU BKN090 35/25 Q0996 NOSIG
16:00
M
35 °C 6 km 9.000 ft Var Var 3 kt METAR VAJB 141030Z VRB03KT 6000 SCT018 FEW030TCU BKN090 35/25 Q0997 NOSIG
15:30
M
34 °C 6 km 9.000 ft 280° 280° 6 kt METAR VAJB 141000Z 28006KT 6000 SCT018 FEW030TCU BKN090 34/25 Q0997 NOSIG
15:00
M
34 °C 6 km 9.000 ft 320° 320° 4 kt METAR VAJB 140930Z 32004KT 6000 SCT018 FEW030TCU BKN090 34/24 Q0997 NOSIG
14:30
M
33 °C 6 km 9.000 ft 020° 020° 5 kt METAR VAJB 140900Z 02005KT 6000 SCT018 FEW030TCU BKN090 33/24 Q0998 NOSIG
13:30
M
33 °C 5 km 9.000 ft 360° 360° 4 kt METAR VAJB 140800Z 36004KT 5000 HZ FEW018 FEW030TCU BKN090 33/24 Q0999 NOSIG
13:00
M
32 °C 5 km 9.000 ft 360° 360° 4 kt METAR VAJB 140730Z 36004KT 5000 HZ FEW018 FEW030TCU BKN090 32/25 Q0999 NOSIG
12:30
M
31 °C 5 km 9.000 ft 350° 350° 3 kt METAR VAJB 140700Z 35003KT 5000 HZ FEW018 FEW030TCU BKN090 31/25 Q1000 NOSIG
12:00
M
31 °C 5 km 9.000 ft 020° 020° 3 kt METAR VAJB 140630Z 02003KT 5000 HZ FEW018 FEW030TCU BKN090 31/25 Q1000 NOSIG
11:30
M
30 °C 5 km 9.000 ft 020° 020° 2 kt METAR VAJB 140600Z 02002KT 5000 HZ FEW018 SCT030TCU BKN090 30/25 Q1001 NOSIG
11:00
M
30 °C 5 km 9.000 ft 350° 350° 3 kt METAR VAJB 140530Z 35003KT 5000 HZ FEW018 SCT030TCU BKN090 30/25 Q1001 NOSIG
10:30
M
29 °C 5 km 9.000 ft 340° 340° 2 kt METAR VAJB 140500Z 34002KT 5000 HZ FEW016 SCT025 BKN090 29/25 Q1001 NOSIG
10:00
M
29 °C 5 km 9.000 ft 310° 310° 3 kt METAR VAJB 140430Z 31003KT 5000 HZ FEW012 SCT020 BKN090 29/25 Q1001 NOSIG
09:30
M
29 °C 5 km 9.000 ft 320° 320° 3 kt METAR VAJB 140400Z 32003KT 5000 HZ FEW012 SCT020 BKN090 29/25 Q1002 NOSIG
09:00
M
28 °C 5 km 9.000 ft 310° 310° 3 kt METAR VAJB 140330Z 31003KT 5000 HZ FEW012 SCT020 BKN090 28/25 Q1001 NOSIG
08:30
M
28 °C 5 km 9.000 ft 270° 270° 7 kt METAR VAJB 140300Z 27007KT 5000 HZ FEW012 SCT020 BKN090 28/25 Q1001 NOSIG
08:00
M
27 °C 5 km 9.000 ft 270° 270° 5 kt METAR VAJB 140230Z 27005KT 5000 HZ FEW012 SCT020 BKN090 27/25 Q1001 NOSIG
07:30
I
27 °C 4 km 9.000 ft 270° 270° 4 kt METAR VAJB 140200Z 27004KT 4000 HZ FEW012 SCT020 BKN090 27/25 Q1001 NOSIG
07:00
I
27 °C 4 km 9.000 ft 250° 250° 4 kt METAR VAJB 140130Z 25004KT 4000 HZ FEW012 SCT020 BKN090 27/25 Q1001 NOSIG
06:30
I
26 °C 4 km 9.000 ft 230° 230° 4 kt METAR VAJB 140100Z 23004KT 4000 HZ FEW012 SCT020 BKN090 26/25 Q1001 NOSIG
06:00
I
26 °C 4 km 9.000 ft 230° 230° 4 kt METAR VAJB 140030Z 23004KT 4000 HZ FEW012 SCT020 BKN090 26/25 Q1000 NOSIG

13 luglio 2024

Tempo Codice Tempo meteorologico Temp. Vista Base nuvolosa Vento METAR/SPECI
20:00
M
29 °C 5 km 9.000 ft 240° 240° 5 kt METAR VAJB 131430Z 24005KT 5000 HZ FEW020 BKN090 29/24 Q1001 NOSIG
19:30
M
29 °C 5 km 9.000 ft 300° 300° 5 kt METAR VAJB 131400Z 30005KT 5000 HZ FEW020 BKN090 29/24 Q1000 NOSIG
19:00
M
29 °C 5 km 9.000 ft 250° 250° 7 kt METAR VAJB 131330Z 25007KT 5000 HZ FEW020 BKN090 29/24 Q1000 NOSIG
18:30
M
30 °C 5 km 9.000 ft 250° 250° 7 kt METAR VAJB 131300Z 25007KT 5000 HZ FEW020 BKN090 30/25 Q1000 NOSIG
17:30
M
31 °C 5 km 9.000 ft 240° 240° 7 kt METAR VAJB 131200Z 24007KT 5000 HZ FEW025 BKN090 31/25 Q0999 NOSIG
17:00
M
31 °C 5 km 9.000 ft 290° 290° 4 kt METAR VAJB 131130Z 29004KT 5000 HZ FEW025 BKN090 31/25 Q0999 NOSIG
16:30
M
31 °C 5 km 9.000 ft 280° 280° 4 kt METAR VAJB 131100Z 28004KT 5000 HZ FEW025 FEW030TCU BKN090 31/25 Q0999 NOSIG
16:00
M
32 °C 5 km 9.000 ft 280° 280° 5 kt METAR VAJB 131030Z 28005KT 5000 HZ FEW025 FEW030TCU BKN090 32/25 Q0999 NOSIG
15:30
M
31 °C 5 km 9.000 ft 280° 280° 4 kt METAR VAJB 131000Z 28004KT 5000 HZ FEW025 FEW030TCU BKN090 31/25 Q0999 NOSIG
15:00
M
31 °C 5 km 9.000 ft 280° 280° 4 kt METAR VAJB 130930Z 28004KT 5000 HZ FEW018 SCT025 FEW030TCU BKN090 31/25 Q0999 NOSIG
14:30
M
31 °C 5 km 9.000 ft 280° 280° 3 kt METAR VAJB 130900Z 28003KT 5000 HZ FEW016 SCT020 FEW030TCU BKN090 31/25 Q0999 NOSIG
14:00
M
30 °C 5 km 9.000 ft 250° 250° 4 kt METAR VAJB 130830Z 25004KT 5000 HZ FEW016 SCT020 BKN090 30/25 Q1000 NOSIG
13:30
M
30 °C 5 km 10.000 ft 330° 330° 4 kt METAR VAJB 130800Z 33004KT 5000 HZ FEW015 SCT020 BKN100 30/25 Q1001 TEMPO 4000 -RA
13:00
M
30 °C 5 km 9.000 ft 260° 260° 8 kt METAR VAJB 130730Z 26008KT 5000 -DZ FEW015 SCT020 BKN090 30/25 Q1001 TEMPO 4000 -RA
12:30
M
30 °C 5 km 10.000 ft 340° 340° 6 kt METAR VAJB 130700Z 34006KT 5000 HZ FEW015 SCT020 FEW030CB BKN100 30/25 Q1001 TEMPO 3000 -TSRA
12:00
M
29 °C 5 km 10.000 ft 290° 290° 7 kt METAR VAJB 130630Z 29007KT 5000 HZ SCT020 BKN100 29/25 Q1002 NOSIG
11:30
M
29 °C 5 km 10.000 ft 300° 300° 8 kt METAR VAJB 130600Z 30008KT 5000 HZ SCT020 BKN100 29/25 Q1002 NOSIG
11:00
M
29 °C 5 km 10.000 ft 280° 280° 12 kt METAR VAJB 130530Z 28012KT 5000 HZ FEW015 SCT020 BKN100 29/25 Q1002 NOSIG
10:30
M
29 °C 5 km 10.000 ft 300° 300° 8 kt METAR VAJB 130500Z 30008KT 5000 HZ SCT015 SCT020 BKN100 29/25 Q1002 NOSIG
10:00
M
29 °C 5 km 10.000 ft 270° 270° 7 kt METAR VAJB 130430Z 27007KT 5000 HZ FEW015 SCT020 BKN100 29/25 Q1002 NOSIG
09:30
I
28 °C 4 km 10.000 ft 270° 270° 8 kt METAR VAJB 130400Z 27008KT 4000 HZ FEW015 SCT020 BKN100 28/25 Q1002 NOSIG
09:00
I
28 °C 4 km 9.000 ft 260° 260° 9 kt METAR VAJB 130330Z 26009KT 4000 HZ SCT015 SCT020 BKN090 28/25 Q1003 NOSIG
08:30
I
27 °C 4 km 9.000 ft 260° 260° 8 kt METAR VAJB 130300Z 26008KT 4000 HZ SCT015 SCT020 BKN090 27/24 Q1002 NOSIG
08:00
I
27 °C 4 km 9.000 ft 260° 260° 8 kt METAR VAJB 130230Z 26008KT 4000 HZ SCT015 SCT020 BKN090 27/24 Q1002 TEMPO 3000 -RA
07:30
I
27 °C 4 km 9.000 ft 250° 250° 8 kt METAR VAJB 130200Z 25008KT 4000 HZ SCT015 SCT020 BKN090 27/24 Q1002 TEMPO 3000 -RA
07:00
I
26 °C 4 km 9.000 ft 240° 240° 8 kt METAR VAJB 130130Z 24008KT 4000 HZ SCT015 SCT020 BKN090 26/24 Q1002 TEMPO 3000 -RA
Segnala modifiche